createdAt,value
2023-01-23T00:06:10.589Z,79780.56
2023-01-23T00:13:12.760Z,79784.66
2023-01-23T00:20:14.903Z,79780.56
2023-01-23T00:27:16.971Z,79796.94
2023-01-23T00:34:20.381Z,79796.94
2023-01-23T00:41:22.330Z,79801.03
2023-01-23T00:48:24.949Z,79796.94
2023-01-23T00:55:26.881Z,79801.03
2023-01-23T01:02:29.187Z,79796.94
2023-01-23T01:09:31.201Z,79799.00
2023-01-23T01:16:34.514Z,79807.16
2023-01-23T01:23:37.763Z,79813.31
2023-01-23T01:30:40.335Z,79819.44
2023-01-23T01:37:42.731Z,79817.41
2023-01-23T01:45:32.677Z,79823.53
2023-01-23T01:52:34.814Z,79833.75
2023-01-23T01:59:48.788Z,79827.63
2023-01-23T02:06:52.159Z,79831.72
2023-01-23T02:13:56.881Z,79837.84
2023-01-23T02:21:02.200Z,79850.13
2023-01-23T02:28:04.723Z,79844.00
2023-01-23T02:35:12.293Z,79841.94
2023-01-23T02:42:14.290Z,79839.91
2023-01-23T02:49:16.719Z,79858.31
2023-01-23T02:56:19.096Z,79856.25
2023-01-23T03:03:21.112Z,79854.22
2023-01-23T03:10:23.121Z,79858.31
2023-01-23T03:17:25.472Z,79864.44
2023-01-23T03:24:27.546Z,79866.50
2023-01-23T03:31:29.588Z,79868.53
2023-01-23T03:38:31.478Z,79874.66
2023-01-23T03:45:33.440Z,79882.84
2023-01-23T03:52:35.524Z,79891.03
2023-01-23T03:59:37.525Z,79891.03
2023-01-23T04:06:39.666Z,79897.16
2023-01-23T04:13:41.832Z,79893.06
2023-01-23T04:20:43.926Z,79903.31
2023-01-23T04:27:45.919Z,79915.56
2023-01-23T04:34:48.005Z,79913.53
2023-01-23T04:41:50.065Z,79923.75
2023-01-23T04:48:52.146Z,79936.03
2023-01-23T04:55:54.252Z,79954.44
2023-01-23T05:02:57.228Z,79952.41
2023-01-23T05:09:59.295Z,79952.41
2023-01-23T05:17:01.335Z,79962.63
2023-01-23T05:24:03.331Z,79968.75
2023-01-23T05:31:05.574Z,79979.00
2023-01-23T05:38:07.580Z,79985.13
2023-01-23T05:45:09.901Z,79989.22
2023-01-23T05:52:13.302Z,79987.16
2023-01-23T05:59:15.529Z,79997.41
2023-01-23T06:06:17.551Z,80005.56
2023-01-23T06:13:19.902Z,79999.44
2023-01-23T06:20:22.373Z,80009.66
2023-01-23T06:27:24.861Z,80019.91
2023-01-23T06:34:26.730Z,80013.75
2023-01-23T06:41:28.719Z,80021.94
2023-01-23T06:48:30.662Z,80030.13
2023-01-23T06:55:33.231Z,80028.09
2023-01-23T07:02:35.611Z,80030.13
2023-01-23T07:09:37.719Z,80042.41
2023-01-23T07:16:39.794Z,80042.41
2023-01-23T07:23:41.817Z,80044.44
2023-01-23T07:30:43.989Z,80046.50
2023-01-23T07:37:46.655Z,80034.22
2023-01-23T07:44:48.793Z,80034.22
2023-01-23T07:51:50.701Z,80038.31
2023-01-23T07:58:52.913Z,80036.25
2023-01-23T08:05:55.161Z,80034.22
2023-01-23T08:12:57.228Z,80036.25
2023-01-23T08:19:59.284Z,80030.13
2023-01-23T08:27:01.252Z,80028.09
2023-01-23T08:34:03.438Z,80021.94
2023-01-23T08:41:05.994Z,80030.13
2023-01-23T08:48:08.938Z,80024.00
2023-01-23T08:55:13.791Z,80030.13
2023-01-23T09:02:16.001Z,80019.91
2023-01-23T09:09:18.548Z,80028.09
2023-01-23T09:16:20.511Z,80026.03
2023-01-23T09:23:23.259Z,80015.81
2023-01-23T09:30:25.419Z,80009.66
2023-01-23T09:37:30.462Z,80007.63
2023-01-23T09:44:41.520Z,80007.63
2023-01-23T09:52:11.541Z,80009.66
2023-01-23T09:59:13.317Z,80009.66
2023-01-23T10:06:18.685Z,80009.66
2023-01-23T10:13:42.347Z,80011.72
2023-01-23T10:20:51.695Z,80001.50
2023-01-23T10:27:57.755Z,79981.03
2023-01-23T10:35:15.172Z,79991.25
2023-01-23T10:42:20.847Z,79983.06
2023-01-23T10:49:33.288Z,79976.94
2023-01-23T10:56:37.600Z,79968.75
2023-01-23T11:03:40.045Z,79964.66
2023-01-23T11:10:42.063Z,79970.81
2023-01-23T11:17:44.445Z,79948.31
2023-01-23T11:24:46.476Z,79942.16
2023-01-23T11:31:51.032Z,79944.22
2023-01-23T11:38:57.409Z,79938.06
2023-01-23T11:46:08.566Z,79944.22
2023-01-23T11:53:27.804Z,79964.66
2023-01-23T12:01:16.648Z,79960.56
2023-01-23T12:08:30.967Z,79954.44
2023-01-23T12:16:15.928Z,79952.41
2023-01-23T12:23:23.627Z,79964.66
2023-01-23T12:30:45.295Z,79954.44
2023-01-23T12:38:05.621Z,79954.44
2023-01-23T12:45:24.658Z,79954.44
2023-01-23T12:52:58.769Z,79964.66
2023-01-23T13:00:13.418Z,79976.94
2023-01-23T13:07:15.377Z,79983.06
2023-01-23T13:14:32.808Z,79989.22
2023-01-23T13:21:55.169Z,80003.53
2023-01-23T13:29:02.590Z,80009.66
2023-01-23T13:36:45.261Z,79999.44
2023-01-23T13:43:50.115Z,79993.31
2023-01-23T14:27:52.043Z,80015.81
2023-01-23T14:34:55.021Z,80009.66
2023-01-23T14:42:02.653Z,80015.81
2023-01-23T14:49:07.576Z,80013.75
2023-01-23T14:56:11.022Z,80013.75
2023-01-23T15:03:13.429Z,80017.84
2023-01-23T15:10:36.528Z,80021.94
2023-01-23T15:17:38.451Z,80015.81
2023-01-23T15:24:40.433Z,80009.66
2023-01-23T15:31:46.445Z,80011.72
2023-01-23T15:38:48.438Z,80017.84
2023-01-23T15:45:50.359Z,80024.00
2023-01-23T15:52:53.851Z,80017.84
2023-01-23T15:59:55.815Z,80024.00
2023-01-23T16:06:59.834Z,80021.94
2023-01-23T16:14:02.242Z,80026.03
2023-01-23T16:21:04.417Z,80017.84
2023-01-23T16:28:06.860Z,80019.91
2023-01-23T16:35:09.919Z,80030.13
2023-01-23T16:42:18.146Z,80040.34
2023-01-23T16:49:20.867Z,80042.41
2023-01-23T16:56:25.913Z,80042.41
2023-01-23T17:03:32.752Z,80050.59
2023-01-23T17:10:45.864Z,80048.53
2023-01-23T17:17:51.796Z,80054.66
2023-01-23T17:24:56.230Z,80046.50
2023-01-23T17:31:58.669Z,80060.81
2023-01-23T17:39:01.592Z,80052.63
2023-01-23T17:46:05.208Z,80050.59
2023-01-23T17:53:09.363Z,80056.72
2023-01-23T18:00:21.001Z,80060.81
2023-01-23T18:07:23.435Z,80058.75
2023-01-23T18:14:38.914Z,80062.84
2023-01-23T18:21:42.001Z,80066.94
2023-01-23T18:29:00.542Z,80060.81
2023-01-23T18:36:30.622Z,80056.72
2023-01-23T18:43:33.148Z,80064.91
2023-01-23T18:50:36.479Z,80062.84
2023-01-23T18:57:53.947Z,80071.03
2023-01-23T19:05:27.554Z,80075.13
2023-01-23T19:12:55.645Z,80075.13
2023-01-23T19:20:04.092Z,80073.09
2023-01-23T19:27:22.163Z,80081.25
2023-01-23T19:34:25.119Z,80083.31
2023-01-23T19:41:36.404Z,80089.44
2023-01-23T19:48:39.393Z,80093.53
2023-01-23T19:55:42.371Z,80085.34
2023-01-23T20:02:45.566Z,80091.50
2023-01-23T20:09:48.381Z,80085.34
2023-01-23T20:16:51.570Z,80083.31
2023-01-23T20:23:58.086Z,80079.22
2023-01-23T20:31:15.293Z,80085.34
2023-01-23T20:38:18.832Z,80083.31
2023-01-23T20:45:21.971Z,80079.22
2023-01-23T20:52:42.703Z,80071.03
2023-01-23T20:59:46.303Z,80083.31
2023-01-23T21:06:52.314Z,80075.13
2023-01-23T21:13:56.397Z,80066.94
2023-01-23T21:21:04.313Z,80060.81
2023-01-23T21:28:06.616Z,80066.94
2023-01-23T21:35:09.008Z,80069.00
2023-01-23T21:42:11.751Z,80077.19
2023-01-23T21:49:13.742Z,80091.50
2023-01-23T21:56:18.903Z,80099.69
2023-01-23T22:03:20.904Z,80103.75
2023-01-23T22:10:22.918Z,80095.59
2023-01-23T22:17:24.866Z,80099.69
2023-01-23T22:24:26.972Z,80103.75
2023-01-23T22:31:29.024Z,80111.94
2023-01-23T22:38:31.348Z,80097.63
2023-01-23T22:45:33.411Z,80103.75
2023-01-23T22:52:35.573Z,80099.69
2023-01-23T22:59:38.008Z,80095.59
2023-01-23T23:06:40.051Z,80101.72
2023-01-23T23:13:42.047Z,80091.50
2023-01-23T23:20:44.056Z,80099.69
2023-01-23T23:27:45.953Z,80095.59
2023-01-23T23:34:47.866Z,80091.50
2023-01-23T23:41:49.866Z,80095.59
2023-01-23T23:48:51.821Z,80073.09
2023-01-23T23:55:54.017Z,80066.94
